Flight Track Log - Related Links

Times and Time Zones

All times are in EDT time to prevent confusion due to time zone crossing. See the N960DL flight status page for this flight to view local times or setup timezone preferences in your user account.

Time Position Orientation Groundspeed Altitude Reporting Facility
EDT Latitude Longitude Course Direction KTS MPH feet Rate Location/Type
Thu 01:21:44 PM 35.0167 -89.9667 98° East 163 188 1,300  Level KMEM
Thu 01:23:14 PM 34.9333 -89.9333 162° South 268 308 3,900 2,160 Climbing KMEM
Thu 01:24:00 PM 34.9606 -89.6186 103° East  Level Estimated
Thu 01:24:14 PM 34.9333 -89.8500 90° East 285 328 6,700  Level KMEM
Thu 01:25:00 PM 34.9447 -89.4963 99° East  Level FlightAware Approximate
Thu 01:25:20 PM 34.9333 -89.7500 90° East 278 320 7,000  Level KMEM
Thu 01:26:00 PM 34.9286 -89.3740 99° East  Level FlightAware Approximate
Thu 01:26:16 PM 34.9167 -89.6667 104° East 276 318 7,000  Level KMEM
Thu 01:27:00 PM 34.9004 -89.2551 98° East  Level Estimated
Thu 01:27:31 PM 34.9169 -89.5392 90° East 302 348 9,900  Level Memphis Center
Thu 01:28:31 PM 34.9100 -89.4456 95° East 312 359 11,200 1,950 Climbing Memphis Center
Thu 01:29:31 PM 34.9069 -89.3214 92° East 337 388 13,800 2,800 Climbing Memphis Center
Thu 01:30:31 PM 34.9039 -89.1972 92° East 358 412 16,800 2,550 Climbing Memphis Center
Thu 01:31:31 PM 34.8900 -89.0736 98° East 366 421 18,900 1,800 Climbing Memphis Center
Thu 01:32:31 PM 34.8700 -88.9497 101° East 371 427 20,400 2,100 Climbing Memphis Center
Thu 01:33:31 PM 34.8431 -88.8033 103° East 383 441 23,100 2,200 Climbing Memphis Center
Thu 01:34:31 PM 34.8186 -88.6775 103° East 388 447 24,800 1,500 Climbing Memphis Center
Thu 01:35:31 PM 34.7939 -88.5464 103° East 394 453 26,100 1,150 Climbing Memphis Center
Thu 01:36:31 PM 34.7733 -88.4331 102° East 388 447 27,100 1,000 Climbing Memphis Center
Thu 01:37:31 PM 34.7503 -88.2922 101° East 402 463 28,100 1,150 Climbing Memphis Center
Thu 01:38:31 PM 34.7222 -88.1261 102° East 440 506 29,400 900 Climbing Memphis Center
Thu 01:39:31 PM 34.6967 -87.9778 102° East 449 517 29,900 497 Climbing Memphis Center
Thu 01:41:32 PM 34.6503 -87.6850 101° East 461 531 30,900 365 Climbing Atlanta Center
Thu 01:42:32 PM 34.6217 -87.5169 102° East 485 558 31,000 50 Climbing Atlanta Center
Thu 01:43:32 PM 34.5931 -87.3469 102° East 499 574 31,000  Level Atlanta Center
Thu 01:44:32 PM 34.5581 -87.1639 103° East 504 580 31,000  Level Atlanta Center
Thu 01:45:32 PM 34.5267 -86.9964 103° East 509 586 31,000  Level Atlanta Center
Thu 01:46:32 PM 34.4975 -86.8264 102° East 509 586 31,000  Level Atlanta Center
Thu 01:47:32 PM 34.4653 -86.6667 104° East 509 586 31,000  Level Atlanta Center
Thu 01:48:32 PM 34.4356 -86.4994 102° East 504 580 31,000  Level Atlanta Center
Thu 01:49:32 PM 34.4053 -86.3350 103° East 504 580 31,000 -500 Level Atlanta Center
Thu 01:50:32 PM 34.3747 -86.1731 103° East 499 574 30,000 -1,800 Descending Atlanta Center
Thu 01:51:32 PM 34.3400 -86.0061 104° East 499 574 27,400 -2,650 Descending Atlanta Center
Thu 01:52:32 PM 34.3133 -85.8444 101° East 494 568 24,700 -2,550 Descending Atlanta Center
Thu 01:53:32 PM 34.2819 -85.6981 105° East 465 535 22,300 -2,500 Descending Atlanta Center
Thu 01:54:32 PM 34.2525 -85.5517 104° East 451 519 19,700 -2,250 Descending Atlanta Center
Thu 01:55:32 PM 34.2250 -85.4156 104° East 432 497 17,800 -1,400 Descending Atlanta Center
Thu 01:56:32 PM 34.2011 -85.2947 103° East 397 457 16,900 -1,400 Descending Atlanta Center
Thu 01:57:32 PM 34.1772 -85.1786 104° East 361 415 15,000 -1,750 Descending Atlanta Center
Thu 01:58:32 PM 34.1364 -85.0803 117° Southeast 336 387 13,400 -1,100 Descending Atlanta Center
Thu 01:59:32 PM 34.0681 -85.0067 138° Southeast 325 374 12,800 -1,000 Descending Atlanta Center
Thu 02:00:32 PM 33.9847 -84.9883 170° South 301 346 11,400 -1,550 Descending Atlanta Center
Thu 02:01:32 PM 33.9036 -84.9650 167° South 296 341 9,700 -1,250 Descending Atlanta Center
Thu 02:02:32 PM 33.8242 -84.9539 173° South 294 338 8,900 -850 Descending Atlanta Center
Thu 02:03:32 PM 33.7617 -84.9508 178° South 272 313 8,000 -500 Descending Atlanta Center
Thu 02:04:32 PM 33.6992 -84.9403 172° South 245 282 7,900 -400 Descending Atlanta Center
Thu 02:05:32 PM 33.6428 -84.9197 163° South 229 264 7,200 -431 Descending Atlanta Center
Thu 02:07:05 PM 33.6333 -84.8167 96° East 176 203 6,800 -490 Descending Atlanta TRACON
Thu 02:07:59 PM 33.6333 -84.7667 90° East 180 207 6,000 -947 Descending Atlanta TRACON
Thu 02:08:59 PM 33.6333 -84.7000 90° East 170 196 5,000 -950 Descending Atlanta TRACON
Thu 02:09:59 PM 33.6333 -84.6500 90° East 172 198 4,100 -900 Descending Atlanta TRACON

Login

Don't have an account? Register now (free) for customized features, flight alerts, and more!